Sign-in with your pilot id or email, or register

ICAO: EDDW Name / Country: Bremen Airport / Germany
Latitude: 53.0475 Longitude: 8.78667
Total Arrivals:
Strict Standards: Non-static method AirportData::getarrflights() should not be called statically, assuming $this from incompatible context in /var/www/customers/vh-7192/web/home/phpvms/core/templates/airport_info.tpl on line 18
1
Total Departures:
Strict Standards: Non-static method AirportData::getdeptflights() should not be called statically, assuming $this from incompatible context in /var/www/customers/vh-7192/web/home/phpvms/core/templates/airport_info.tpl on line 21
0
Latest Arrival: MTA11P (LHBP-EDDW) Tibor Berces Latest Departure: (-)
Metar: EDDW 010020Z 12006KT CAVOK 13/12 Q1010
More info

Charts for EDDW


NOTAM


Warning: file_get_contents(http://api.vateud.net/notams/EDDW.json): failed to open stream: Redirection limit reached, aborting in /var/www/customers/vh-7192/web/home/phpvms/core/common/NOTAMSData.class.php on line 18

Warning: Invalid argument supplied for foreach() in /var/www/customers/vh-7192/web/home/phpvms/core/common/NOTAMSData.class.php on line 22

Bremen Airport